sensor_id;sensor_type;location;lat;lon;timestamp;P1;durP1;ratioP1;P2;durP2;ratioP2
15841;SDS011;8021;48.022;11.812;2023-11-19T00:01:44;0.40;;;0.40;;
15841;SDS011;8021;48.022;11.812;2023-11-19T00:04:13;0.40;;;0.40;;
15841;SDS011;8021;48.022;11.812;2023-11-19T00:06:41;0.43;;;0.43;;
15841;SDS011;8021;48.022;11.812;2023-11-19T00:09:10;0.40;;;0.40;;
15841;SDS011;8021;48.022;11.812;2023-11-19T00:11:38;0.40;;;0.40;;
15841;SDS011;8021;48.022;11.812;2023-11-19T00:14:05;0.50;;;0.50;;
15841;SDS011;8021;48.022;11.812;2023-11-19T00:16:35;0.40;;;0.40;;
15841;SDS011;8021;48.022;11.812;2023-11-19T00:19:02;0.40;;;0.40;;
15841;SDS011;8021;48.022;11.812;2023-11-19T00:21:30;0.40;;;0.40;;
15841;SDS011;8021;48.022;11.812;2023-11-19T00:23:59;0.40;;;0.40;;
15841;SDS011;8021;48.022;11.812;2023-11-19T00:26:28;0.40;;;0.40;;
15841;SDS011;8021;48.022;11.812;2023-11-19T00:28:56;0.50;;;0.50;;
15841;SDS011;8021;48.022;11.812;2023-11-19T00:31:25;0.45;;;0.45;;
15841;SDS011;8021;48.022;11.812;2023-11-19T00:33:54;0.40;;;0.40;;
15841;SDS011;8021;48.022;11.812;2023-11-19T00:36:21;0.40;;;0.40;;
15841;SDS011;8021;48.022;11.812;2023-11-19T00:38:50;0.40;;;0.40;;
15841;SDS011;8021;48.022;11.812;2023-11-19T00:41:19;0.40;;;0.40;;
15841;SDS011;8021;48.022;11.812;2023-11-19T00:43:47;0.40;;;0.40;;
15841;SDS011;8021;48.022;11.812;2023-11-19T00:46:15;0.40;;;0.40;;
15841;SDS011;8021;48.022;11.812;2023-11-19T00:48:43;0.40;;;0.40;;
15841;SDS011;8021;48.022;11.812;2023-11-19T00:51:11;0.40;;;0.40;;
15841;SDS011;8021;48.022;11.812;2023-11-19T00:53:38;0.50;;;0.50;;
15841;SDS011;8021;48.022;11.812;2023-11-19T00:56:06;0.50;;;0.50;;
15841;SDS011;8021;48.022;11.812;2023-11-19T00:58:34;0.40;;;0.40;;
15841;SDS011;8021;48.022;11.812;2023-11-19T01:01:04;0.40;;;0.40;;
15841;SDS011;8021;48.022;11.812;2023-11-19T01:03:33;0.30;;;0.30;;
15841;SDS011;8021;48.022;11.812;2023-11-19T01:06:01;0.40;;;0.40;;
15841;SDS011;8021;48.022;11.812;2023-11-19T01:08:28;0.45;;;0.45;;
15841;SDS011;8021;48.022;11.812;2023-11-19T01:10:56;0.40;;;0.40;;
15841;SDS011;8021;48.022;11.812;2023-11-19T01:13:24;0.30;;;0.30;;
15841;SDS011;8021;48.022;11.812;2023-11-19T01:15:51;0.40;;;0.40;;
15841;SDS011;8021;48.022;11.812;2023-11-19T01:18:20;0.40;;;0.40;;
15841;SDS011;8021;48.022;11.812;2023-11-19T01:20:48;0.40;;;0.40;;
15841;SDS011;8021;48.022;11.812;2023-11-19T01:23:16;0.40;;;0.40;;
15841;SDS011;8021;48.022;11.812;2023-11-19T01:25:43;0.40;;;0.40;;
15841;SDS011;8021;48.022;11.812;2023-11-19T01:28:11;0.40;;;0.40;;
15841;SDS011;8021;48.022;11.812;2023-11-19T01:30:38;0.30;;;0.30;;
15841;SDS011;8021;48.022;11.812;2023-11-19T01:33:08;0.40;;;0.40;;
15841;SDS011;8021;48.022;11.812;2023-11-19T01:35:38;0.30;;;0.30;;
15841;SDS011;8021;48.022;11.812;2023-11-19T01:38:05;0.40;;;0.40;;
15841;SDS011;8021;48.022;11.812;2023-11-19T01:40:34;0.40;;;0.40;;
15841;SDS011;8021;48.022;11.812;2023-11-19T01:43:03;0.47;;;0.47;;
15841;SDS011;8021;48.022;11.812;2023-11-19T01:45:31;0.40;;;0.40;;
15841;SDS011;8021;48.022;11.812;2023-11-19T01:47:59;0.40;;;0.40;;
15841;SDS011;8021;48.022;11.812;2023-11-19T01:50:28;0.30;;;0.30;;
15841;SDS011;8021;48.022;11.812;2023-11-19T01:52:57;0.38;;;0.38;;
15841;SDS011;8021;48.022;11.812;2023-11-19T01:55:25;0.40;;;0.40;;
15841;SDS011;8021;48.022;11.812;2023-11-19T01:57:53;0.30;;;0.30;;
15841;SDS011;8021;48.022;11.812;2023-11-19T02:00:22;0.40;;;0.40;;
15841;SDS011;8021;48.022;11.812;2023-11-19T02:02:49;0.30;;;0.30;;
15841;SDS011;8021;48.022;11.812;2023-11-19T02:05:18;0.40;;;0.40;;
15841;SDS011;8021;48.022;11.812;2023-11-19T02:07:47;0.40;;;0.40;;
15841;SDS011;8021;48.022;11.812;2023-11-19T02:10:17;0.40;;;0.40;;
15841;SDS011;8021;48.022;11.812;2023-11-19T02:12:45;0.40;;;0.40;;
15841;SDS011;8021;48.022;11.812;2023-11-19T02:15:13;0.40;;;0.40;;
15841;SDS011;8021;48.022;11.812;2023-11-19T02:17:41;0.32;;;0.32;;
15841;SDS011;8021;48.022;11.812;2023-11-19T02:20:10;0.30;;;0.30;;
15841;SDS011;8021;48.022;11.812;2023-11-19T02:22:39;0.40;;;0.40;;
15841;SDS011;8021;48.022;11.812;2023-11-19T02:25:07;0.60;;;0.60;;
15841;SDS011;8021;48.022;11.812;2023-11-19T02:27:43;0.40;;;0.40;;
15841;SDS011;8021;48.022;11.812;2023-11-19T02:30:11;0.40;;;0.40;;
15841;SDS011;8021;48.022;11.812;2023-11-19T02:32:41;0.40;;;0.40;;
15841;SDS011;8021;48.022;11.812;2023-11-19T02:35:08;0.35;;;0.35;;
15841;SDS011;8021;48.022;11.812;2023-11-19T02:37:37;0.40;;;0.40;;
15841;SDS011;8021;48.022;11.812;2023-11-19T02:40:05;0.32;;;0.32;;
15841;SDS011;8021;48.022;11.812;2023-11-19T02:42:35;0.32;;;0.32;;
15841;SDS011;8021;48.022;11.812;2023-11-19T02:45:04;0.30;;;0.30;;
15841;SDS011;8021;48.022;11.812;2023-11-19T02:47:33;0.30;;;0.30;;
15841;SDS011;8021;48.022;11.812;2023-11-19T02:50:02;0.40;;;0.40;;
15841;SDS011;8021;48.022;11.812;2023-11-19T02:52:30;0.30;;;0.30;;
15841;SDS011;8021;48.022;11.812;2023-11-19T02:55:01;0.30;;;0.30;;
15841;SDS011;8021;48.022;11.812;2023-11-19T02:57:30;0.40;;;0.40;;
15841;SDS011;8021;48.022;11.812;2023-11-19T02:59:58;0.40;;;0.40;;
15841;SDS011;8021;48.022;11.812;2023-11-19T03:02:27;0.38;;;0.38;;
15841;SDS011;8021;48.022;11.812;2023-11-19T03:05:00;0.40;;;0.40;;
15841;SDS011;8021;48.022;11.812;2023-11-19T03:07:27;0.40;;;0.40;;
15841;SDS011;8021;48.022;11.812;2023-11-19T03:09:55;0.30;;;0.30;;
15841;SDS011;8021;48.022;11.812;2023-11-19T03:12:23;0.30;;;0.30;;
15841;SDS011;8021;48.022;11.812;2023-11-19T03:14:52;0.30;;;0.30;;
15841;SDS011;8021;48.022;11.812;2023-11-19T03:17:21;0.30;;;0.30;;
15841;SDS011;8021;48.022;11.812;2023-11-19T03:19:51;0.43;;;0.43;;
15841;SDS011;8021;48.022;11.812;2023-11-19T03:22:19;0.40;;;0.40;;
15841;SDS011;8021;48.022;11.812;2023-11-19T03:24:47;0.30;;;0.30;;
15841;SDS011;8021;48.022;11.812;2023-11-19T03:27:14;0.30;;;0.30;;
15841;SDS011;8021;48.022;11.812;2023-11-19T03:29:43;0.43;;;0.43;;
15841;SDS011;8021;48.022;11.812;2023-11-19T03:32:10;0.30;;;0.30;;
15841;SDS011;8021;48.022;11.812;2023-11-19T03:34:38;0.35;;;0.35;;
15841;SDS011;8021;48.022;11.812;2023-11-19T03:37:08;0.35;;;0.35;;
15841;SDS011;8021;48.022;11.812;2023-11-19T03:39:36;0.40;;;0.40;;
15841;SDS011;8021;48.022;11.812;2023-11-19T03:42:03;0.40;;;0.40;;
15841;SDS011;8021;48.022;11.812;2023-11-19T03:44:31;0.43;;;0.43;;
15841;SDS011;8021;48.022;11.812;2023-11-19T03:46:59;0.30;;;0.30;;
15841;SDS011;8021;48.022;11.812;2023-11-19T03:49:26;0.30;;;0.30;;
15841;SDS011;8021;48.022;11.812;2023-11-19T03:51:54;0.50;;;0.50;;
15841;SDS011;8021;48.022;11.812;2023-11-19T03:54:23;0.30;;;0.30;;
15841;SDS011;8021;48.022;11.812;2023-11-19T03:56:51;0.40;;;0.40;;
15841;SDS011;8021;48.022;11.812;2023-11-19T03:59:19;0.40;;;0.40;;
15841;SDS011;8021;48.022;11.812;2023-11-19T04:01:47;0.30;;;0.30;;
15841;SDS011;8021;48.022;11.812;2023-11-19T04:04:15;0.40;;;0.40;;
15841;SDS011;8021;48.022;11.812;2023-11-19T04:06:43;0.40;;;0.40;;
15841;SDS011;8021;48.022;11.812;2023-11-19T04:09:10;0.35;;;0.35;;
15841;SDS011;8021;48.022;11.812;2023-11-19T04:11:39;0.40;;;0.40;;
15841;SDS011;8021;48.022;11.812;2023-11-19T04:14:07;0.30;;;0.30;;
15841;SDS011;8021;48.022;11.812;2023-11-19T04:16:36;0.30;;;0.30;;
15841;SDS011;8021;48.022;11.812;2023-11-19T04:19:04;0.30;;;0.30;;
15841;SDS011;8021;48.022;11.812;2023-11-19T04:21:32;0.40;;;0.40;;
15841;SDS011;8021;48.022;11.812;2023-11-19T04:24:00;0.43;;;0.43;;
15841;SDS011;8021;48.022;11.812;2023-11-19T04:26:28;0.40;;;0.40;;
15841;SDS011;8021;48.022;11.812;2023-11-19T04:28:58;0.40;;;0.40;;
15841;SDS011;8021;48.022;11.812;2023-11-19T04:31:28;0.40;;;0.40;;
15841;SDS011;8021;48.022;11.812;2023-11-19T04:33:57;0.40;;;0.40;;
15841;SDS011;8021;48.022;11.812;2023-11-19T04:36:31;0.45;;;0.45;;
15841;SDS011;8021;48.022;11.812;2023-11-19T04:38:59;0.40;;;0.40;;
15841;SDS011;8021;48.022;11.812;2023-11-19T04:41:27;0.38;;;0.38;;
15841;SDS011;8021;48.022;11.812;2023-11-19T04:43:54;0.40;;;0.40;;
15841;SDS011;8021;48.022;11.812;2023-11-19T04:46:23;0.50;;;0.50;;
15841;SDS011;8021;48.022;11.812;2023-11-19T04:48:51;0.38;;;0.38;;
15841;SDS011;8021;48.022;11.812;2023-11-19T04:51:18;0.40;;;0.40;;
15841;SDS011;8021;48.022;11.812;2023-11-19T04:53:46;0.30;;;0.30;;
15841;SDS011;8021;48.022;11.812;2023-11-19T04:56:13;0.40;;;0.40;;
15841;SDS011;8021;48.022;11.812;2023-11-19T04:58:42;0.40;;;0.40;;
15841;SDS011;8021;48.022;11.812;2023-11-19T05:01:13;0.40;;;0.40;;
15841;SDS011;8021;48.022;11.812;2023-11-19T05:03:42;0.40;;;0.40;;
15841;SDS011;8021;48.022;11.812;2023-11-19T05:06:09;0.30;;;0.30;;
15841;SDS011;8021;48.022;11.812;2023-11-19T05:08:37;0.40;;;0.40;;
15841;SDS011;8021;48.022;11.812;2023-11-19T05:11:05;0.30;;;0.30;;
15841;SDS011;8021;48.022;11.812;2023-11-19T05:13:33;0.35;;;0.35;;
15841;SDS011;8021;48.022;11.812;2023-11-19T05:16:00;0.45;;;0.45;;
15841;SDS011;8021;48.022;11.812;2023-11-19T05:18:33;0.50;;;0.50;;
15841;SDS011;8021;48.022;11.812;2023-11-19T05:21:02;0.40;;;0.40;;
15841;SDS011;8021;48.022;11.812;2023-11-19T05:23:30;0.47;;;0.47;;
15841;SDS011;8021;48.022;11.812;2023-11-19T05:25:57;0.30;;;0.30;;
15841;SDS011;8021;48.022;11.812;2023-11-19T05:28:25;0.40;;;0.40;;
15841;SDS011;8021;48.022;11.812;2023-11-19T05:30:52;0.40;;;0.40;;
15841;SDS011;8021;48.022;11.812;2023-11-19T05:33:20;0.40;;;0.40;;
15841;SDS011;8021;48.022;11.812;2023-11-19T05:35:47;0.40;;;0.40;;
15841;SDS011;8021;48.022;11.812;2023-11-19T05:38:16;0.30;;;0.30;;
15841;SDS011;8021;48.022;11.812;2023-11-19T05:40:43;0.30;;;0.30;;
15841;SDS011;8021;48.022;11.812;2023-11-19T05:43:11;0.40;;;0.40;;
15841;SDS011;8021;48.022;11.812;2023-11-19T05:45:39;0.30;;;0.30;;
15841;SDS011;8021;48.022;11.812;2023-11-19T05:48:06;0.30;;;0.30;;
15841;SDS011;8021;48.022;11.812;2023-11-19T05:50:35;0.30;;;0.30;;
15841;SDS011;8021;48.022;11.812;2023-11-19T05:53:03;0.40;;;0.40;;
15841;SDS011;8021;48.022;11.812;2023-11-19T05:55:34;0.30;;;0.30;;
15841;SDS011;8021;48.022;11.812;2023-11-19T05:58:02;0.30;;;0.30;;
15841;SDS011;8021;48.022;11.812;2023-11-19T06:00:30;0.30;;;0.30;;
15841;SDS011;8021;48.022;11.812;2023-11-19T06:02:58;0.30;;;0.30;;
15841;SDS011;8021;48.022;11.812;2023-11-19T06:05:25;0.40;;;0.40;;
15841;SDS011;8021;48.022;11.812;2023-11-19T06:07:53;0.30;;;0.30;;
15841;SDS011;8021;48.022;11.812;2023-11-19T06:10:20;0.30;;;0.30;;
15841;SDS011;8021;48.022;11.812;2023-11-19T06:12:49;0.30;;;0.30;;
15841;SDS011;8021;48.022;11.812;2023-11-19T06:15:22;0.40;;;0.40;;
15841;SDS011;8021;48.022;11.812;2023-11-19T06:17:49;0.40;;;0.40;;
15841;SDS011;8021;48.022;11.812;2023-11-19T06:20:17;0.40;;;0.40;;
15841;SDS011;8021;48.022;11.812;2023-11-19T06:22:46;0.30;;;0.30;;
15841;SDS011;8021;48.022;11.812;2023-11-19T06:25:13;0.30;;;0.30;;
15841;SDS011;8021;48.022;11.812;2023-11-19T06:27:42;0.30;;;0.30;;
15841;SDS011;8021;48.022;11.812;2023-11-19T06:30:11;0.30;;;0.30;;
15841;SDS011;8021;48.022;11.812;2023-11-19T06:32:39;0.40;;;0.40;;
15841;SDS011;8021;48.022;11.812;2023-11-19T06:35:07;0.30;;;0.30;;
15841;SDS011;8021;48.022;11.812;2023-11-19T06:37:35;0.30;;;0.30;;
15841;SDS011;8021;48.022;11.812;2023-11-19T06:40:03;0.30;;;0.30;;
15841;SDS011;8021;48.022;11.812;2023-11-19T06:42:32;0.30;;;0.30;;
15841;SDS011;8021;48.022;11.812;2023-11-19T06:44:59;0.30;;;0.30;;
15841;SDS011;8021;48.022;11.812;2023-11-19T06:47:28;0.30;;;0.30;;
15841;SDS011;8021;48.022;11.812;2023-11-19T06:49:56;0.30;;;0.30;;
15841;SDS011;8021;48.022;11.812;2023-11-19T06:52:23;0.30;;;0.30;;
15841;SDS011;8021;48.022;11.812;2023-11-19T06:54:51;0.30;;;0.30;;
15841;SDS011;8021;48.022;11.812;2023-11-19T06:57:21;0.30;;;0.30;;
15841;SDS011;8021;48.022;11.812;2023-11-19T06:59:50;0.40;;;0.40;;
15841;SDS011;8021;48.022;11.812;2023-11-19T07:02:17;0.40;;;0.40;;
15841;SDS011;8021;48.022;11.812;2023-11-19T07:04:46;0.35;;;0.35;;
15841;SDS011;8021;48.022;11.812;2023-11-19T07:07:14;0.40;;;0.40;;
15841;SDS011;8021;48.022;11.812;2023-11-19T07:09:42;0.30;;;0.30;;
15841;SDS011;8021;48.022;11.812;2023-11-19T07:12:09;0.40;;;0.40;;
15841;SDS011;8021;48.022;11.812;2023-11-19T07:14:37;0.40;;;0.40;;
15841;SDS011;8021;48.022;11.812;2023-11-19T07:17:04;0.30;;;0.30;;
15841;SDS011;8021;48.022;11.812;2023-11-19T07:19:32;0.30;;;0.30;;
15841;SDS011;8021;48.022;11.812;2023-11-19T07:22:03;0.30;;;0.30;;
15841;SDS011;8021;48.022;11.812;2023-11-19T07:24:30;0.30;;;0.30;;
15841;SDS011;8021;48.022;11.812;2023-11-19T07:26:58;0.40;;;0.40;;
15841;SDS011;8021;48.022;11.812;2023-11-19T07:29:25;0.30;;;0.30;;
15841;SDS011;8021;48.022;11.812;2023-11-19T07:31:55;0.30;;;0.30;;
15841;SDS011;8021;48.022;11.812;2023-11-19T07:34:23;0.40;;;0.40;;
15841;SDS011;8021;48.022;11.812;2023-11-19T07:36:51;0.30;;;0.30;;
15841;SDS011;8021;48.022;11.812;2023-11-19T07:39:20;0.40;;;0.40;;
15841;SDS011;8021;48.022;11.812;2023-11-19T07:41:48;0.45;;;0.45;;
15841;SDS011;8021;48.022;11.812;2023-11-19T07:44:15;0.30;;;0.30;;
15841;SDS011;8021;48.022;11.812;2023-11-19T07:46:43;0.30;;;0.30;;
15841;SDS011;8021;48.022;11.812;2023-11-19T07:49:11;0.30;;;0.30;;
15841;SDS011;8021;48.022;11.812;2023-11-19T07:51:39;0.30;;;0.30;;
15841;SDS011;8021;48.022;11.812;2023-11-19T07:54:08;0.30;;;0.30;;
15841;SDS011;8021;48.022;11.812;2023-11-19T07:56:37;0.45;;;0.45;;
15841;SDS011;8021;48.022;11.812;2023-11-19T07:59:04;0.30;;;0.30;;
15841;SDS011;8021;48.022;11.812;2023-11-19T08:01:33;0.30;;;0.30;;
15841;SDS011;8021;48.022;11.812;2023-11-19T08:04:00;0.30;;;0.30;;
15841;SDS011;8021;48.022;11.812;2023-11-19T08:06:29;0.38;;;0.38;;
15841;SDS011;8021;48.022;11.812;2023-11-19T08:08:56;0.40;;;0.40;;
15841;SDS011;8021;48.022;11.812;2023-11-19T08:11:24;0.40;;;0.40;;
15841;SDS011;8021;48.022;11.812;2023-11-19T08:13:53;0.30;;;0.30;;
15841;SDS011;8021;48.022;11.812;2023-11-19T08:16:20;0.40;;;0.40;;
15841;SDS011;8021;48.022;11.812;2023-11-19T08:18:48;0.40;;;0.40;;
15841;SDS011;8021;48.022;11.812;2023-11-19T08:21:16;0.30;;;0.30;;
15841;SDS011;8021;48.022;11.812;2023-11-19T08:23:43;0.30;;;0.25;;
15841;SDS011;8021;48.022;11.812;2023-11-19T08:26:10;0.30;;;0.30;;
15841;SDS011;8021;48.022;11.812;2023-11-19T08:28:38;0.40;;;0.40;;
15841;SDS011;8021;48.022;11.812;2023-11-19T08:31:07;0.30;;;0.30;;
15841;SDS011;8021;48.022;11.812;2023-11-19T08:33:34;0.30;;;0.30;;
15841;SDS011;8021;48.022;11.812;2023-11-19T08:36:03;0.40;;;0.40;;
15841;SDS011;8021;48.022;11.812;2023-11-19T08:38:31;0.30;;;0.30;;
15841;SDS011;8021;48.022;11.812;2023-11-19T08:40:58;0.38;;;0.38;;
15841;SDS011;8021;48.022;11.812;2023-11-19T08:43:27;0.40;;;0.40;;
15841;SDS011;8021;48.022;11.812;2023-11-19T08:45:54;0.40;;;0.40;;
15841;SDS011;8021;48.022;11.812;2023-11-19T08:48:23;0.40;;;0.40;;
15841;SDS011;8021;48.022;11.812;2023-11-19T08:50:52;0.30;;;0.30;;
15841;SDS011;8021;48.022;11.812;2023-11-19T08:53:19;0.32;;;0.32;;
15841;SDS011;8021;48.022;11.812;2023-11-19T08:55:48;0.40;;;0.40;;
15841;SDS011;8021;48.022;11.812;2023-11-19T08:58:15;0.40;;;0.40;;
15841;SDS011;8021;48.022;11.812;2023-11-19T09:00:44;0.38;;;0.38;;
15841;SDS011;8021;48.022;11.812;2023-11-19T09:03:12;0.30;;;0.30;;
15841;SDS011;8021;48.022;11.812;2023-11-19T09:05:41;0.30;;;0.30;;
15841;SDS011;8021;48.022;11.812;2023-11-19T09:08:08;0.30;;;0.30;;
15841;SDS011;8021;48.022;11.812;2023-11-19T09:10:37;0.40;;;0.40;;
15841;SDS011;8021;48.022;11.812;2023-11-19T09:13:05;0.30;;;0.30;;
15841;SDS011;8021;48.022;11.812;2023-11-19T09:15:32;0.30;;;0.30;;
15841;SDS011;8021;48.022;11.812;2023-11-19T09:18:00;0.40;;;0.40;;
15841;SDS011;8021;48.022;11.812;2023-11-19T09:20:27;0.30;;;0.22;;
15841;SDS011;8021;48.022;11.812;2023-11-19T09:23:00;0.30;;;0.20;;
15841;SDS011;8021;48.022;11.812;2023-11-19T09:25:28;0.30;;;0.30;;
15841;SDS011;8021;48.022;11.812;2023-11-19T09:28:11;0.40;;;0.40;;
15841;SDS011;8021;48.022;11.812;2023-11-19T09:30:40;0.30;;;0.30;;
15841;SDS011;8021;48.022;11.812;2023-11-19T09:33:08;0.43;;;0.43;;
15841;SDS011;8021;48.022;11.812;2023-11-19T09:35:36;0.35;;;0.35;;
15841;SDS011;8021;48.022;11.812;2023-11-19T09:38:04;0.32;;;0.32;;
15841;SDS011;8021;48.022;11.812;2023-11-19T09:40:32;0.30;;;0.30;;
15841;SDS011;8021;48.022;11.812;2023-11-19T09:43:00;0.40;;;0.40;;
15841;SDS011;8021;48.022;11.812;2023-11-19T09:45:27;0.30;;;0.30;;
15841;SDS011;8021;48.022;11.812;2023-11-19T09:47:55;0.30;;;0.30;;
15841;SDS011;8021;48.022;11.812;2023-11-19T09:50:24;0.35;;;0.35;;
15841;SDS011;8021;48.022;11.812;2023-11-19T09:52:52;0.30;;;0.30;;
15841;SDS011;8021;48.022;11.812;2023-11-19T09:55:21;0.40;;;0.40;;
15841;SDS011;8021;48.022;11.812;2023-11-19T09:57:48;0.30;;;0.30;;
15841;SDS011;8021;48.022;11.812;2023-11-19T10:00:17;0.30;;;0.20;;
15841;SDS011;8021;48.022;11.812;2023-11-19T10:02:46;0.30;;;0.30;;
15841;SDS011;8021;48.022;11.812;2023-11-19T10:05:16;0.30;;;0.20;;
15841;SDS011;8021;48.022;11.812;2023-11-19T10:07:43;0.30;;;0.20;;
15841;SDS011;8021;48.022;11.812;2023-11-19T10:10:12;0.30;;;0.30;;
15841;SDS011;8021;48.022;11.812;2023-11-19T10:12:45;0.30;;;0.30;;
15841;SDS011;8021;48.022;11.812;2023-11-19T10:15:19;0.30;;;0.25;;
15841;SDS011;8021;48.022;11.812;2023-11-19T10:17:47;0.30;;;0.30;;
15841;SDS011;8021;48.022;11.812;2023-11-19T10:20:15;0.30;;;0.30;;
15841;SDS011;8021;48.022;11.812;2023-11-19T10:22:42;0.30;;;0.22;;
15841;SDS011;8021;48.022;11.812;2023-11-19T10:25:21;0.30;;;0.30;;
15841;SDS011;8021;48.022;11.812;2023-11-19T10:30:43;0.30;;;0.30;;
15841;SDS011;8021;48.022;11.812;2023-11-19T10:33:11;0.30;;;0.30;;
15841;SDS011;8021;48.022;11.812;2023-11-19T10:35:53;0.30;;;0.28;;
15841;SDS011;8021;48.022;11.812;2023-11-19T10:38:24;0.30;;;0.30;;
15841;SDS011;8021;48.022;11.812;2023-11-19T10:40:51;0.30;;;0.30;;
15841;SDS011;8021;48.022;11.812;2023-11-19T10:43:19;0.30;;;0.30;;
15841;SDS011;8021;48.022;11.812;2023-11-19T10:45:50;0.30;;;0.20;;
15841;SDS011;8021;48.022;11.812;2023-11-19T10:48:18;0.30;;;0.30;;
15841;SDS011;8021;48.022;11.812;2023-11-19T10:50:46;0.20;;;0.20;;
15841;SDS011;8021;48.022;11.812;2023-11-19T10:53:17;0.20;;;0.20;;
15841;SDS011;8021;48.022;11.812;2023-11-19T10:55:46;0.30;;;0.30;;
15841;SDS011;8021;48.022;11.812;2023-11-19T10:58:15;0.30;;;0.30;;
15841;SDS011;8021;48.022;11.812;2023-11-19T11:00:44;0.20;;;0.20;;
15841;SDS011;8021;48.022;11.812;2023-11-19T11:03:16;0.20;;;0.20;;
15841;SDS011;8021;48.022;11.812;2023-11-19T11:05:45;0.20;;;0.20;;
15841;SDS011;8021;48.022;11.812;2023-11-19T11:08:14;0.30;;;0.20;;
15841;SDS011;8021;48.022;11.812;2023-11-19T11:10:43;0.30;;;0.20;;
15841;SDS011;8021;48.022;11.812;2023-11-19T11:13:14;0.30;;;0.22;;
15841;SDS011;8021;48.022;11.812;2023-11-19T11:15:41;0.20;;;0.20;;
15841;SDS011;8021;48.022;11.812;2023-11-19T11:18:09;0.30;;;0.30;;
15841;SDS011;8021;48.022;11.812;2023-11-19T11:20:38;0.20;;;0.20;;
15841;SDS011;8021;48.022;11.812;2023-11-19T11:23:19;0.20;;;0.20;;
15841;SDS011;8021;48.022;11.812;2023-11-19T11:25:51;0.30;;;0.20;;
15841;SDS011;8021;48.022;11.812;2023-11-19T11:28:24;0.20;;;0.20;;
15841;SDS011;8021;48.022;11.812;2023-11-19T11:30:56;0.20;;;0.20;;
15841;SDS011;8021;48.022;11.812;2023-11-19T11:33:31;0.30;;;0.20;;
15841;SDS011;8021;48.022;11.812;2023-11-19T11:36:06;0.20;;;0.20;;
15841;SDS011;8021;48.022;11.812;2023-11-19T11:38:36;0.20;;;0.20;;
15841;SDS011;8021;48.022;11.812;2023-11-19T11:41:14;0.20;;;0.20;;
15841;SDS011;8021;48.022;11.812;2023-11-19T11:43:45;0.30;;;0.20;;
15841;SDS011;8021;48.022;11.812;2023-11-19T11:49:00;0.30;;;0.20;;
15841;SDS011;8021;48.022;11.812;2023-11-19T11:54:25;0.30;;;0.22;;
15841;SDS011;8021;48.022;11.812;2023-11-19T11:57:00;0.30;;;0.20;;
15841;SDS011;8021;48.022;11.812;2023-11-19T11:59:36;0.20;;;0.20;;
15841;SDS011;8021;48.022;11.812;2023-11-19T12:02:54;0.30;;;0.30;;
15841;SDS011;8021;48.022;11.812;2023-11-19T12:06:34;0.30;;;0.20;;
15841;SDS011;8021;48.022;11.812;2023-11-19T12:09:03;0.20;;;0.20;;
15841;SDS011;8021;48.022;11.812;2023-11-19T12:11:34;0.30;;;0.20;;
15841;SDS011;8021;48.022;11.812;2023-11-19T12:15:15;0.20;;;0.20;;
15841;SDS011;8021;48.022;11.812;2023-11-19T12:18:56;0.30;;;0.30;;
15841;SDS011;8021;48.022;11.812;2023-11-19T12:22:43;0.30;;;0.20;;
15841;SDS011;8021;48.022;11.812;2023-11-19T12:26:32;0.20;;;0.20;;
15841;SDS011;8021;48.022;11.812;2023-11-19T12:29:02;0.20;;;0.20;;
15841;SDS011;8021;48.022;11.812;2023-11-19T12:31:34;0.30;;;0.20;;
15841;SDS011;8021;48.022;11.812;2023-11-19T12:34:09;0.30;;;0.28;;
15841;SDS011;8021;48.022;11.812;2023-11-19T12:36:39;0.20;;;0.20;;
15841;SDS011;8021;48.022;11.812;2023-11-19T12:39:08;0.20;;;0.20;;
15841;SDS011;8021;48.022;11.812;2023-11-19T12:41:49;0.20;;;0.20;;
15841;SDS011;8021;48.022;11.812;2023-11-19T12:44:19;0.20;;;0.20;;
15841;SDS011;8021;48.022;11.812;2023-11-19T12:46:58;0.30;;;0.20;;
15841;SDS011;8021;48.022;11.812;2023-11-19T12:49:26;0.20;;;0.20;;
15841;SDS011;8021;48.022;11.812;2023-11-19T12:51:54;0.30;;;0.30;;
15841;SDS011;8021;48.022;11.812;2023-11-19T12:54:31;0.30;;;0.20;;
15841;SDS011;8021;48.022;11.812;2023-11-19T12:56:59;0.20;;;0.20;;
15841;SDS011;8021;48.022;11.812;2023-11-19T12:59:29;0.30;;;0.20;;
15841;SDS011;8021;48.022;11.812;2023-11-19T13:01:57;0.20;;;0.20;;
15841;SDS011;8021;48.022;11.812;2023-11-19T13:04:27;0.30;;;0.30;;
15841;SDS011;8021;48.022;11.812;2023-11-19T13:06:56;0.20;;;0.20;;
15841;SDS011;8021;48.022;11.812;2023-11-19T13:09:27;0.30;;;0.30;;
15841;SDS011;8021;48.022;11.812;2023-11-19T13:11:55;0.30;;;0.20;;
15841;SDS011;8021;48.022;11.812;2023-11-19T13:14:23;0.30;;;0.22;;
15841;SDS011;8021;48.022;11.812;2023-11-19T13:16:52;0.30;;;0.20;;
15841;SDS011;8021;48.022;11.812;2023-11-19T13:19:20;0.30;;;0.28;;
15841;SDS011;8021;48.022;11.812;2023-11-19T13:21:49;0.20;;;0.20;;
15841;SDS011;8021;48.022;11.812;2023-11-19T13:24:17;0.20;;;0.20;;
15841;SDS011;8021;48.022;11.812;2023-11-19T13:26:45;0.30;;;0.20;;
15841;SDS011;8021;48.022;11.812;2023-11-19T13:29:12;0.20;;;0.20;;
15841;SDS011;8021;48.022;11.812;2023-11-19T13:31:40;0.30;;;0.30;;
15841;SDS011;8021;48.022;11.812;2023-11-19T13:34:09;0.30;;;0.30;;
15841;SDS011;8021;48.022;11.812;2023-11-19T13:36:37;0.22;;;0.22;;
15841;SDS011;8021;48.022;11.812;2023-11-19T13:39:04;0.30;;;0.30;;
15841;SDS011;8021;48.022;11.812;2023-11-19T13:41:33;0.30;;;0.20;;
15841;SDS011;8021;48.022;11.812;2023-11-19T13:44:01;0.30;;;0.30;;
15841;SDS011;8021;48.022;11.812;2023-11-19T13:46:28;0.30;;;0.20;;
15841;SDS011;8021;48.022;11.812;2023-11-19T13:48:56;0.30;;;0.20;;
15841;SDS011;8021;48.022;11.812;2023-11-19T13:51:25;0.30;;;0.20;;
15841;SDS011;8021;48.022;11.812;2023-11-19T13:53:53;0.30;;;0.30;;
15841;SDS011;8021;48.022;11.812;2023-11-19T13:56:20;0.30;;;0.30;;
15841;SDS011;8021;48.022;11.812;2023-11-19T13:58:48;0.20;;;0.20;;
15841;SDS011;8021;48.022;11.812;2023-11-19T14:01:15;0.32;;;0.32;;
15841;SDS011;8021;48.022;11.812;2023-11-19T14:03:43;0.30;;;0.30;;
15841;SDS011;8021;48.022;11.812;2023-11-19T14:06:11;0.30;;;0.30;;
15841;SDS011;8021;48.022;11.812;2023-11-19T14:08:40;0.25;;;0.25;;
15841;SDS011;8021;48.022;11.812;2023-11-19T14:11:07;0.30;;;0.30;;
15841;SDS011;8021;48.022;11.812;2023-11-19T14:13:35;0.30;;;0.30;;
15841;SDS011;8021;48.022;11.812;2023-11-19T14:16:03;0.30;;;0.30;;
15841;SDS011;8021;48.022;11.812;2023-11-19T14:18:33;0.30;;;0.20;;
15841;SDS011;8021;48.022;11.812;2023-11-19T14:21:02;0.20;;;0.20;;
15841;SDS011;8021;48.022;11.812;2023-11-19T14:23:30;0.30;;;0.20;;
15841;SDS011;8021;48.022;11.812;2023-11-19T14:26:00;0.30;;;0.30;;
15841;SDS011;8021;48.022;11.812;2023-11-19T14:28:27;0.30;;;0.30;;
15841;SDS011;8021;48.022;11.812;2023-11-19T14:30:55;0.30;;;0.30;;
15841;SDS011;8021;48.022;11.812;2023-11-19T14:33:23;0.30;;;0.28;;
15841;SDS011;8021;48.022;11.812;2023-11-19T14:35:51;0.25;;;0.25;;
15841;SDS011;8021;48.022;11.812;2023-11-19T14:38:19;0.30;;;0.30;;
15841;SDS011;8021;48.022;11.812;2023-11-19T14:40:46;0.30;;;0.30;;
15841;SDS011;8021;48.022;11.812;2023-11-19T14:43:16;0.30;;;0.20;;
15841;SDS011;8021;48.022;11.812;2023-11-19T14:45:43;0.20;;;0.20;;
15841;SDS011;8021;48.022;11.812;2023-11-19T14:48:15;0.30;;;0.30;;
15841;SDS011;8021;48.022;11.812;2023-11-19T14:50:43;0.30;;;0.30;;
15841;SDS011;8021;48.022;11.812;2023-11-19T14:53:11;0.30;;;0.30;;
15841;SDS011;8021;48.022;11.812;2023-11-19T14:55:39;0.30;;;0.30;;
15841;SDS011;8021;48.022;11.812;2023-11-19T14:58:06;0.30;;;0.30;;
15841;SDS011;8021;48.022;11.812;2023-11-19T15:00:39;0.30;;;0.30;;
15841;SDS011;8021;48.022;11.812;2023-11-19T15:03:06;0.30;;;0.30;;
15841;SDS011;8021;48.022;11.812;2023-11-19T15:05:35;0.30;;;0.30;;
15841;SDS011;8021;48.022;11.812;2023-11-19T15:08:03;0.30;;;0.30;;
15841;SDS011;8021;48.022;11.812;2023-11-19T15:10:30;0.30;;;0.30;;
15841;SDS011;8021;48.022;11.812;2023-11-19T15:12:58;0.30;;;0.30;;